No particular awareness of the weather is required.    There are no Weather-warnings


Meteo18 Weather Cam more information Meteo18 Weather Cam


Thunder radar more information blitzortung!


Rain radar more information rain snow radar


Visit our other weather sites:

Template documentation
and downloads

And another site



Weather Underground History page Text

Daily Summary for January 31, 2017 Units:  English    Metric   Both
« Previous Day
Next Day »
Daily Weekly Monthly Yearly Custom
  High: Low: Average:
Temperature: TemperatureC °F 7.8 °F 9.3 °F
Dew Point: DewpointC °F 7.5 °F 8.9 °F
Humidity: Humidity % 94 % 97 %
Wind Speed: WindSpeedKMH mph 0.0 mph 2.2 mph
Wind Gust: WindSpeedGustKMH mph - -
Wind:- - SW
Pressure: PressurehPa in 1015.5 in -
Precipitation: 0.8 in    
Historical Graphs
 
 
Tabular Data for January 31, 2017
Time Temperature Dew Point Pressure Wind Wind Speed Wind Gust Humidity Rainfall Rate (Hourly)
TemperatureC °F DewpointC °F PressurehPa in Calm     Humidity % HourlyPrecipMM in
00:02 8.7 °F 8.4 °F 1016.8 in SSW 4.8 mph 16.1 mph 98 % 1.0 in
00:12 8.4 °F 8.1 °F 1016.8 in South 4.8 mph 12.9 mph 98 % 0.8 in
00:17 8.4 °F 8.1 °F 1016.8 in South 4.8 mph 12.9 mph 98 % 0.5 in
00:22 8.4 °F 8.1 °F 1016.5 in SSW 3.2 mph 12.9 mph 98 % 0.5 in
00:32 8.3 °F 8.0 °F 1016.5 in SSE 1.6 mph 8.0 mph 98 % 0.5 in
00:37 8.4 °F 8.1 °F 1016.5 in South 1.6 mph 4.8 mph 98 % 0.3 in
00:42 8.4 °F 8.1 °F 1016.5 in Calm   4.8 mph 98 % 0.3 in
00:52 8.3 °F 8.0 °F 1016.5 in SSW 1.6 mph 3.2 mph 98 % 0.3 in
01:02 8.3 °F 8.0 °F 1016.5 in Calm   3.2 mph 98 % 0.3 in
01:12 8.3 °F 8.0 °F 1016.5 in Calm   1.6 mph 98 % 0.3 in
01:17 8.3 °F 8.0 °F 1016.5 in Calm   3.2 mph 98 % 0.0 in
01:22 8.3 °F 8.0 °F 1016.5 in South 1.6 mph 3.2 mph 98 % 0.0 in
01:27 8.3 °F 8.0 °F 1016.5 in SSW 1.6 mph 3.2 mph 98 % 0.0 in
01:32 8.2 °F 7.9 °F 1016.5 in SSW 1.6 mph 3.2 mph 98 % 0.0 in
01:37 8.2 °F 7.9 °F 1016.5 in SSW 3.2 mph 4.8 mph 98 % 0.0 in
01:42 8.2 °F 7.9 °F 1016.5 in SW 4.8 mph 4.8 mph 98 % 0.0 in
01:52 8.3 °F 8.0 °F 1016.1 in Calm   4.8 mph 98 % 0.0 in
01:57 8.3 °F 8.0 °F 1016.1 in Calm   6.4 mph 98 % 0.0 in
02:02 8.2 °F 7.9 °F 1016.1 in Calm   6.4 mph 98 % 0.0 in
02:12 8.2 °F 7.9 °F 1016.1 in Calm   3.2 mph 98 % 0.0 in
02:17 8.2 °F 7.9 °F 1016.1 in SSE 1.6 mph 3.2 mph 98 % 0.0 in
02:22 8.2 °F 7.9 °F 1016.1 in South 3.2 mph 3.2 mph 98 % 0.0 in
02:32 8.2 °F 7.9 °F 1016.1 in SW 4.8 mph 4.8 mph 98 % 0.0 in
02:37 8.2 °F 7.9 °F 1016.1 in SW 3.2 mph 4.8 mph 98 % 0.0 in
02:42 8.1 °F 7.8 °F 1016.1 in SSW 1.6 mph 4.8 mph 98 % 0.0 in
02:47 8.0 °F 7.7 °F 1016.1 in SW 1.6 mph 6.4 mph 98 % 0.0 in
02:52 8.1 °F 7.8 °F 1016.1 in Calm   6.4 mph 98 % 0.0 in
02:57 8.1 °F 7.8 °F 1016.1 in Calm   3.2 mph 98 % 0.0 in
03:02 8.1 °F 7.8 °F 1016.1 in South 1.6 mph 3.2 mph 98 % 0.0 in
03:12 8.1 °F 7.8 °F 1016.1 in SW 1.6 mph 3.2 mph 98 % 0.0 in
03:17 8.1 °F 7.8 °F 1016.1 in SW 1.6 mph 3.2 mph 98 % 0.0 in
03:22 8.1 °F 7.8 °F 1016.1 in SSW 1.6 mph 3.2 mph 98 % 0.0 in
03:27 8.1 °F 7.8 °F 1016.1 in SSW 3.2 mph 3.2 mph 98 % 0.0 in
03:32 8.1 °F 7.8 °F 1016.1 in SSW 1.6 mph 3.2 mph 98 % 0.0 in
03:37 8.0 °F 7.7 °F 1016.1 in SSW 1.6 mph 3.2 mph 98 % 0.0 in
03:42 8.0 °F 7.7 °F 1016.1 in SSW 4.8 mph 4.8 mph 98 % 0.0 in
03:47 7.9 °F 7.6 °F 1015.8 in SSW 1.6 mph 4.8 mph 98 % 0.0 in
03:52 7.8 °F 7.5 °F 1015.8 in SSW 3.2 mph 4.8 mph 98 % 0.0 in
03:57 7.8 °F 7.5 °F 1015.8 in SSW 3.2 mph 6.4 mph 98 % 0.0 in
04:02 7.8 °F 7.5 °F 1015.8 in SSW 4.8 mph 8.0 mph 98 % 0.0 in
04:12 7.8 °F 7.5 °F 1015.8 in SW 8.0 mph 8.0 mph 98 % 0.0 in
04:17 7.8 °F 7.5 °F 1015.8 in SSW 4.8 mph 8.0 mph 98 % 0.0 in
04:22 7.8 °F 7.5 °F 1015.8 in SSW 6.4 mph 8.0 mph 98 % 0.0 in
04:27 7.8 °F 7.5 °F 1015.8 in SSW 4.8 mph 8.0 mph 98 % 0.0 in
04:32 7.9 °F 7.6 °F 1015.8 in SSW 6.4 mph 8.0 mph 98 % 0.0 in
04:37 7.9 °F 7.6 °F 1015.8 in SSW 4.8 mph 9.7 mph 98 % 0.0 in
04:42 7.9 °F 7.6 °F 1015.5 in SSW 6.4 mph 9.7 mph 98 % 0.0 in
04:47 7.9 °F 7.6 °F 1015.5 in South 4.8 mph 9.7 mph 98 % 0.0 in
04:52 7.9 °F 7.6 °F 1015.5 in SSW 4.8 mph 9.7 mph 98 % 0.0 in
04:57 7.9 °F 7.6 °F 1015.5 in SSW 3.2 mph 8.0 mph 98 % 0.3 in
05:02 8.1 °F 7.8 °F 1015.5 in SSW 4.8 mph 8.0 mph 98 % 0.3 in
05:12 8.0 °F 7.7 °F 1015.5 in SSW 1.6 mph 9.7 mph 98 % 0.3 in
05:17 8.0 °F 7.7 °F 1015.5 in South 4.8 mph 8.0 mph 98 % 0.3 in
05:22 8.1 °F 7.8 °F 1015.5 in South 3.2 mph 8.0 mph 98 % 0.3 in
05:27 8.1 °F 7.8 °F 1015.5 in SSW 1.6 mph 6.4 mph 98 % 0.3 in
05:32 8.1 °F 7.8 °F 1015.8 in South 3.2 mph 6.4 mph 98 % 0.3 in
05:37 8.1 °F 7.8 °F 1015.5 in SSE 3.2 mph 4.8 mph 98 % 0.3 in
05:42 8.1 °F 7.8 °F 1015.5 in Calm   4.8 mph 98 % 0.3 in
05:47 8.1 °F 7.8 °F 1015.5 in SSE 1.6 mph 4.8 mph 98 % 0.3 in
05:52 8.1 °F 7.8 °F 1015.5 in SSW 3.2 mph 4.8 mph 98 % 0.3 in
06:02 8.1 °F 7.8 °F 1015.5 in South 3.2 mph 6.4 mph 98 % 0.0 in
06:07 8.1 °F 7.8 °F 1015.5 in SSW 3.2 mph 6.4 mph 98 % 0.0 in
06:12 8.1 °F 7.8 °F 1015.5 in SSW 4.8 mph 6.4 mph 98 % 0.0 in
06:17 8.1 °F 7.8 °F 1015.5 in SSW 3.2 mph 6.4 mph 98 % 0.3 in
06:22 8.1 °F 7.8 °F 1015.5 in SSW 3.2 mph 6.4 mph 98 % 0.3 in
06:32 8.1 °F 7.8 °F 1015.5 in SSW 6.4 mph 6.4 mph 98 % 0.3 in
06:42 8.1 °F 7.8 °F 1015.5 in SSW 3.2 mph 8.0 mph 98 % 0.3 in
06:47 8.1 °F 7.8 °F 1015.5 in SSW 3.2 mph 8.0 mph 98 % 0.3 in
06:52 8.1 °F 7.8 °F 1015.5 in SW 4.8 mph 8.0 mph 98 % 0.3 in
06:57 8.1 °F 7.8 °F 1015.5 in SSW 3.2 mph 8.0 mph 98 % 0.3 in
07:02 8.1 °F 7.8 °F 1015.5 in SSW 6.4 mph 8.0 mph 98 % 0.3 in
07:12 8.0 °F 7.7 °F 1015.5 in SW 6.4 mph 6.4 mph 98 % 0.3 in
07:17 8.0 °F 7.7 °F 1015.5 in SSW 4.8 mph 8.0 mph 98 % 0.0 in
07:22 8.0 °F 7.7 °F 1015.5 in SW 4.8 mph 8.0 mph 98 % 0.0 in
07:32 8.1 °F 7.8 °F 1015.5 in SSW 8.0 mph 9.7 mph 98 % 0.0 in
07:37 8.1 °F 7.8 °F 1015.5 in SW 4.8 mph 9.7 mph 98 % 0.0 in
07:42 8.1 °F 7.8 °F 1015.5 in SSW 4.8 mph 9.7 mph 98 % 0.0 in
07:47 8.1 °F 7.8 °F 1015.5 in SW 6.4 mph 11.3 mph 98 % 0.0 in
07:52 8.1 °F 7.8 °F 1015.5 in SW 4.8 mph 11.3 mph 98 % 0.0 in
07:57 8.1 °F 7.8 °F 1015.8 in SSW 3.2 mph 11.3 mph 98 % 0.0 in
08:02 8.0 °F 7.7 °F 1015.5 in SSW 1.6 mph 11.3 mph 98 % 0.0 in
08:07 8.1 °F 7.8 °F 1015.8 in SSE 1.6 mph 6.4 mph 98 % 0.0 in
08:12 8.1 °F 7.8 °F 1015.8 in Calm   6.4 mph 98 % 0.0 in
08:17 8.1 °F 7.8 °F 1015.8 in SSE 1.6 mph 4.8 mph 98 % 0.0 in
08:22 8.1 °F 7.8 °F 1015.8 in Calm   4.8 mph 98 % 0.0 in
08:32 8.1 °F 7.8 °F 1016.1 in Calm   1.6 mph 98 % 0.0 in
08:37 8.1 °F 7.8 °F 1016.1 in Calm   1.6 mph 98 % 0.0 in
08:42 8.1 °F 7.8 °F 1016.1 in SSW 4.8 mph 4.8 mph 98 % 0.0 in
08:52 8.1 °F 7.8 °F 1016.1 in SSW 1.6 mph 4.8 mph 98 % 0.0 in
08:57 8.1 °F 7.8 °F 1016.1 in Calm   4.8 mph 98 % 0.0 in
09:02 8.1 °F 7.8 °F 1016.1 in Calm   4.8 mph 98 % 0.0 in
09:12 8.0 °F 7.7 °F 1016.1 in SSW 1.6 mph 3.2 mph 98 % 0.0 in
09:17 8.0 °F 7.7 °F 1016.1 in SSW 1.6 mph 3.2 mph 98 % 0.0 in
09:22 8.0 °F 7.7 °F 1016.1 in Calm   3.2 mph 98 % 0.0 in
09:32 8.0 °F 7.7 °F 1016.1 in South 1.6 mph 3.2 mph 98 % 0.0 in
09:37 8.1 °F 7.8 °F 1016.1 in Calm   3.2 mph 98 % 0.0 in
09:42 8.1 °F 7.8 °F 1016.1 in Calm   3.2 mph 98 % 0.0 in
09:52 8.2 °F 7.9 °F 1016.1 in Calm   1.6 mph 98 % 0.0 in
10:02 8.2 °F 7.9 °F 1016.1 in SSW 1.6 mph 1.6 mph 98 % 0.0 in
10:07 8.3 °F 8.0 °F 1016.5 in Calm   3.2 mph 98 % 0.0 in
10:12 8.3 °F 8.0 °F 1016.5 in Calm   3.2 mph 98 % 0.0 in
10:17 8.3 °F 8.0 °F 1016.5 in Calm   3.2 mph 98 % 0.0 in
10:22 8.4 °F 8.1 °F 1016.5 in SSW 3.2 mph 3.2 mph 98 % 0.0 in
10:32 8.6 °F 8.3 °F 1016.5 in SSE 3.2 mph 8.0 mph 98 % 0.0 in
10:42 8.7 °F 8.4 °F 1016.8 in WSW 3.2 mph 8.0 mph 98 % 0.0 in
10:47 8.7 °F 8.4 °F 1016.8 in SW 6.4 mph 9.7 mph 98 % 0.3 in
10:57 8.8 °F 8.5 °F 1016.8 in SW 6.4 mph 11.3 mph 98 % 0.3 in
11:02 8.8 °F 8.5 °F 1016.8 in SSW 6.4 mph 11.3 mph 98 % 0.3 in
11:07 8.9 °F 8.6 °F 1016.8 in WSW 6.4 mph 9.7 mph 98 % 0.3 in
11:12 8.9 °F 8.6 °F 1016.8 in SW 3.2 mph 9.7 mph 98 % 0.3 in
11:22 8.9 °F 8.6 °F 1016.8 in WSW 3.2 mph 9.7 mph 98 % 0.3 in
11:32 9.1 °F 8.8 °F 1016.8 in Calm   11.3 mph 98 % 0.3 in
11:37 9.1 °F 8.8 °F 1016.8 in West 3.2 mph 9.7 mph 98 % 0.3 in
11:42 9.2 °F 8.9 °F 1016.8 in SW 4.8 mph 9.7 mph 98 % 0.3 in
11:47 9.2 °F 8.9 °F 1016.8 in SSW 6.4 mph 9.7 mph 98 % 0.0 in
11:52 9.3 °F 9.0 °F 1016.8 in West 3.2 mph 9.7 mph 98 % 0.0 in
11:57 9.3 °F 9.0 °F 1017.2 in SSW 6.4 mph 11.3 mph 98 % 0.0 in
12:02 9.4 °F 9.1 °F 1016.8 in SW 3.2 mph 11.3 mph 98 % 0.0 in
12:07 9.4 °F 9.1 °F 1016.8 in WSW 3.2 mph 11.3 mph 98 % 0.0 in
12:12 9.5 °F 9.2 °F 1016.8 in SSW 6.4 mph 11.3 mph 98 % 0.0 in
12:17 9.6 °F 9.3 °F 1017.2 in West 4.8 mph 9.7 mph 98 % 0.0 in
12:22 9.6 °F 9.3 °F 1016.8 in WSW 3.2 mph 9.7 mph 98 % 0.0 in
12:27 9.6 °F 9.3 °F 1016.8 in SW 3.2 mph 9.7 mph 98 % 0.0 in
12:32 9.6 °F 9.3 °F 1016.8 in SW 8.0 mph 9.7 mph 98 % 0.0 in
12:42 9.6 °F 9.3 °F 1016.8 in West 3.2 mph 11.3 mph 98 % 0.0 in
12:47 9.6 °F 9.3 °F 1016.5 in WSW 8.0 mph 11.3 mph 98 % 0.0 in
12:52 9.6 °F 9.3 °F 1016.5 in WSW 9.7 mph 11.3 mph 98 % 0.0 in
13:02 9.5 °F 9.2 °F 1016.5 in West 4.8 mph 11.3 mph 98 % 0.0 in
13:12 9.5 °F 9.2 °F 1016.5 in West 4.8 mph 11.3 mph 98 % 0.0 in
13:17 9.6 °F 9.3 °F 1016.5 in WSW 8.0 mph 14.5 mph 98 % 0.0 in
13:22 9.7 °F 9.4 °F 1016.1 in West 3.2 mph 14.5 mph 98 % 0.0 in
13:27 9.7 °F 9.4 °F 1016.1 in WSW 4.8 mph 14.5 mph 98 % 0.0 in
13:32 9.8 °F 9.5 °F 1016.1 in West 4.8 mph 14.5 mph 98 % 0.0 in
13:37 9.8 °F 9.5 °F 1016.1 in West 3.2 mph 9.7 mph 98 % 0.0 in
13:42 9.9 °F 9.6 °F 1016.1 in West 6.4 mph 9.7 mph 98 % 0.0 in
13:47 10.1 °F 9.8 °F 1016.1 in WNW 3.2 mph 9.7 mph 98 % 0.0 in
13:52 10.2 °F 9.9 °F 1016.1 in West 3.2 mph 9.7 mph 98 % 0.0 in
13:57 10.3 °F 10.0 °F 1016.1 in West 3.2 mph 9.7 mph 98 % 0.0 in
14:02 10.5 °F 10.2 °F 1016.1 in West 4.8 mph 8.0 mph 98 % 0.0 in
14:12 10.8 °F 10.5 °F 1015.8 in WNW 4.8 mph 9.7 mph 98 % 0.0 in
14:17 11.0 °F 10.7 °F 1015.8 in WNW 4.8 mph 9.7 mph 98 % 0.0 in
14:22 11.2 °F 10.9 °F 1015.8 in West 4.8 mph 9.7 mph 98 % 0.0 in
14:32 11.3 °F 11.0 °F 1015.8 in WNW 4.8 mph 8.0 mph 98 % 0.0 in
14:37 11.3 °F 11.0 °F 1015.8 in Calm   8.0 mph 98 % 0.0 in
14:42 11.4 °F 11.1 °F 1015.8 in NW 6.4 mph 8.0 mph 98 % 0.0 in
14:47 11.4 °F 11.1 °F 1015.8 in WSW 4.8 mph 6.4 mph 98 % 0.0 in
14:52 11.5 °F 11.2 °F 1015.8 in West 1.6 mph 6.4 mph 98 % 0.0 in
14:57 11.6 °F 11.3 °F 1015.8 in Calm   6.4 mph 98 % 0.0 in
15:02 11.6 °F 11.1 °F 1015.8 in West 4.8 mph 6.4 mph 97 % 0.0 in
15:12 11.6 °F 11.1 °F 1015.8 in WSW 1.6 mph 8.0 mph 97 % 0.0 in
15:17 11.6 °F 11.0 °F 1015.8 in WSW 8.0 mph 9.7 mph 96 % 0.0 in
15:22 11.6 °F 11.0 °F 1015.8 in WSW 3.2 mph 11.3 mph 96 % 0.0 in
15:27 11.6 °F 10.8 °F 1015.8 in SW 8.0 mph 11.3 mph 95 % 0.0 in
15:32 11.6 °F 10.8 °F 1015.8 in WSW 4.8 mph 11.3 mph 95 % 0.0 in
15:37 11.6 °F 10.8 °F 1015.8 in WSW 1.6 mph 11.3 mph 95 % 0.0 in
15:42 11.7 °F 10.9 °F 1015.8 in WSW 4.8 mph 11.3 mph 95 % 0.0 in
15:47 11.7 °F 10.9 °F 1015.8 in West 3.2 mph 11.3 mph 95 % 0.0 in
15:52 11.8 °F 11.0 °F 1015.8 in WNW 4.8 mph 11.3 mph 95 % 0.0 in
15:57 11.8 °F 11.0 °F 1015.8 in West 3.2 mph 6.4 mph 95 % 0.0 in
16:02 11.8 °F 11.0 °F 1015.8 in Calm   6.4 mph 95 % 0.0 in
16:12 11.9 °F 11.1 °F 1015.8 in Calm   6.4 mph 95 % 0.0 in
16:17 12.0 °F 11.2 °F 1015.8 in Calm   4.8 mph 95 % 0.0 in
16:22 12.2 °F 11.4 °F 1015.8 in Calm   3.2 mph 95 % 0.0 in
16:32 12.3 °F 11.4 °F 1015.8 in Calm     94 % 0.0 in
16:37 12.2 °F 11.3 °F 1015.8 in Calm     94 % 0.0 in
16:42 12.1 °F 11.2 °F 1015.8 in Calm     94 % 0.0 in
16:47 12.1 °F 11.2 °F 1015.8 in Calm     94 % 0.0 in
16:52 12.1 °F 11.2 °F 1015.8 in Calm     94 % 0.0 in
16:57 12.1 °F 11.2 °F 1015.8 in Calm     94 % 0.0 in
17:02 12.1 °F 11.2 °F 1016.1 in Calm     94 % 0.0 in
17:12 12.0 °F 11.2 °F 1016.1 in Calm   1.6 mph 95 % 0.0 in
17:17 12.0 °F 11.2 °F 1016.1 in Calm   1.6 mph 95 % 0.0 in
17:22 12.0 °F 11.2 °F 1016.1 in Calm     95 % 0.0 in
17:27 11.9 °F 11.0 °F 1016.1 in Calm     94 % 0.0 in
17:32 11.9 °F 11.1 °F 1016.1 in Calm     95 % 0.0 in
17:37 11.8 °F 11.0 °F 1016.1 in Calm     95 % 0.0 in
17:42 11.8 °F 11.0 °F 1016.1 in Calm     95 % 0.0 in
17:47 11.7 °F 10.9 °F 1016.5 in Calm     95 % 0.0 in
17:52 11.7 °F 10.9 °F 1016.5 in Calm     95 % 0.0 in
17:57 11.6 °F 10.8 °F 1016.5 in Calm     95 % 0.0 in
18:02 11.5 °F 10.7 °F 1016.5 in Calm     95 % 0.0 in
18:07 11.4 °F 10.6 °F 1016.5 in Calm     95 % 0.0 in
18:12 11.4 °F 10.6 °F 1016.5 in Calm     95 % 0.0 in
18:17 11.3 °F 10.7 °F 1016.5 in Calm     96 % 0.0 in
18:22 11.3 °F 10.7 °F 1016.5 in Calm     96 % 0.0 in
18:32 11.1 °F 10.5 °F 1016.5 in Calm     96 % 0.0 in
18:37 10.9 °F 10.3 °F 1016.1 in Calm     96 % 0.0 in
18:42 10.9 °F 10.3 °F 1016.1 in Calm     96 % 0.0 in
18:52 10.7 °F 10.1 °F 1016.1 in Calm     96 % 0.0 in
19:02 10.6 °F 10.0 °F 1016.1 in Calm     96 % 0.0 in
19:07 10.5 °F 9.9 °F 1016.1 in Calm     96 % 0.0 in
19:12 10.4 °F 9.9 °F 1016.1 in Calm     97 % 0.0 in
19:17 10.4 °F 9.9 °F 1016.1 in Calm     97 % 0.0 in
19:22 10.3 °F 9.8 °F 1016.1 in Calm     97 % 0.0 in
19:27 10.2 °F 9.7 °F 1016.1 in Calm     97 % 0.0 in
19:32 10.2 °F 9.7 °F 1016.1 in Calm     97 % 0.0 in
19:37 10.1 °F 9.6 °F 1016.1 in Calm     97 % 0.0 in
19:42 10.0 °F 9.5 °F 1016.1 in Calm     97 % 0.0 in
19:52 9.9 °F 9.4 °F 1016.1 in Calm   1.6 mph 97 % 0.0 in
19:57 9.9 °F 9.4 °F 1016.1 in Calm     97 % 0.0 in
20:02 9.9 °F 9.4 °F 1016.1 in Calm     97 % 0.0 in
20:12 9.9 °F 9.4 °F 1016.1 in Calm     97 % 0.0 in
20:17 10.0 °F 9.7 °F 1016.1 in Calm     98 % 0.0 in
20:22 10.0 °F 9.5 °F 1016.1 in Calm     97 % 0.0 in
20:32 9.9 °F 9.4 °F 1016.1 in Calm     97 % 0.0 in
20:42 10.1 °F 9.8 °F 1016.1 in Calm     98 % 0.0 in
20:52 9.9 °F 9.4 °F 1016.1 in Calm     97 % 0.0 in
20:57 9.9 °F 9.4 °F 1016.1 in Calm     97 % 0.0 in
21:02 9.8 °F 9.3 °F 1016.1 in Calm     97 % 0.0 in
21:12 9.8 °F 9.5 °F 1016.1 in Calm     98 % 0.0 in
21:17 9.8 °F 9.5 °F 1016.1 in Calm     98 % 0.0 in
21:22 9.8 °F 9.5 °F 1016.1 in Calm     98 % 0.0 in
21:27 9.8 °F 9.3 °F 1016.1 in Calm     97 % 0.0 in
21:32 9.6 °F 9.1 °F 1016.1 in Calm     97 % 0.0 in
21:37 9.5 °F 9.0 °F 1016.1 in Calm     97 % 0.0 in
21:42 9.4 °F 8.9 °F 1016.1 in Calm     97 % 0.0 in
21:47 9.4 °F 8.9 °F 1016.1 in Calm     97 % 0.0 in
21:52 9.4 °F 9.1 °F 1016.1 in Calm     98 % 0.0 in
21:57 9.3 °F 9.0 °F 1016.1 in Calm     98 % 0.0 in
22:02 9.3 °F 9.0 °F 1016.1 in Calm     98 % 0.0 in
22:07 9.3 °F 9.0 °F 1016.1 in Calm     98 % 0.0 in
22:12 9.3 °F 9.0 °F 1016.1 in Calm     98 % 0.0 in
22:17 9.3 °F 9.0 °F 1016.1 in Calm     98 % 0.0 in
22:22 9.3 °F 9.0 °F 1016.1 in Calm     98 % 0.0 in
22:32 9.3 °F 9.0 °F 1016.1 in Calm     98 % 0.0 in
22:37 9.2 °F 8.9 °F 1016.1 in Calm     98 % 0.0 in
22:42 9.2 °F 8.9 °F 1016.1 in Calm     98 % 0.0 in
22:47 9.2 °F 8.9 °F 1016.1 in Calm     98 % 0.0 in
22:52 9.2 °F 8.9 °F 1016.1 in Calm     98 % 0.0 in
22:57 9.3 °F 9.0 °F 1016.1 in Calm     98 % 0.0 in
23:02 9.3 °F 9.0 °F 1016.1 in Calm     98 % 0.0 in
23:07 9.3 °F 9.0 °F 1016.1 in Calm     98 % 0.0 in
23:12 9.3 °F 9.0 °F 1015.8 in Calm     98 % 0.0 in
23:17 9.3 °F 9.0 °F 1015.8 in Calm     98 % 0.0 in
23:22 9.2 °F 8.9 °F 1016.1 in Calm     98 % 0.0 in
23:27 9.2 °F 8.9 °F 1016.1 in Calm     98 % 0.0 in
23:32 9.2 °F 8.9 °F 1016.1 in Calm     98 % 0.0 in
23:37 9.2 °F 8.9 °F 1015.8 in Calm     98 % 0.0 in
23:42 9.2 °F 8.9 °F 1015.8 in Calm     98 % 0.0 in
23:47 9.2 °F 8.9 °F 1016.1 in Calm     98 % 0.0 in
23:52 9.2 °F 8.9 °F 1016.1 in Calm     98 % 0.0 in
23:57 9.1 °F 8.8 °F 1016.1 in Calm     98 % 0.0 in
Meteo18
Compliments of Weather Underground - 4 mb

Script developed by  Jim McMurry - jmcmurry@mwt.net Adapted for the template by  Wim van der Kuil - Leuven-Template.eu

You find our weather info also at:

European Weather Network

Weather Underground

Equipment we use:

Weather-station
Davis Vue

Weather-program
Meteobridge

Weather-server
Raspberry PI 2 B+

Provider
1 and 1

Davis Vue

Meteobridge

Raspberry PI 2 B+

1 and 1